Time;durP1;ratioP1;P1;durP2;ratioP2;P2;SDS_P1;SDS_P2;PMS_P1;PMS_P2;Temp;Humidity;BMP_temperature;BMP_pressure;BME280_temperature;BME280_humidity;BME280_pressure;Samples;Min_cycle;Max_cycle;Signal;HPM_P1;HPM_P2
2021/09/28 00:01:35;;;;;;;9.05;4.30;;;;;;;13.85;100.00;100111.44;5136145;27;20183;-73
2021/09/28 00:04:02;;;;;;;6.30;3.80;;;;;;;13.86;100.00;100115.00;5136423;27;20189;-74
2021/09/28 00:06:30;;;;;;;7.05;4.00;;;;;;;13.73;100.00;100112.25;5136323;27;20200;-73
2021/09/28 00:08:56;;;;;;;7.30;4.68;;;;;;;13.71;100.00;100106.91;5136312;27;20189;-74
2021/09/28 00:11:23;;;;;;;8.32;4.10;;;;;;;13.69;100.00;100116.09;5135593;27;20271;-73
2021/09/28 00:13:50;;;;;;;9.60;4.97;;;;;;;13.68;100.00;100119.75;5136041;27;20201;-73
2021/09/28 00:16:17;;;;;;;6.80;4.45;;;;;;;13.61;100.00;100116.56;5136128;27;20184;-73
2021/09/28 00:18:43;;;;;;;10.60;4.22;;;;;;;13.54;100.00;100116.09;5136065;27;20609;-73
2021/09/28 00:21:10;;;;;;;8.73;4.60;;;;;;;13.53;100.00;100117.06;5135847;27;20211;-73
2021/09/28 00:23:38;;;;;;;10.38;4.50;;;;;;;13.58;100.00;100121.31;5135713;27;20191;-73
2021/09/28 00:26:04;;;;;;;7.32;4.47;;;;;;;13.54;100.00;100120.63;5135489;27;20191;-73
2021/09/28 00:28:31;;;;;;;9.40;4.97;;;;;;;13.51;100.00;100120.81;5135668;27;20192;-73
2021/09/28 00:30:58;;;;;;;8.55;4.22;;;;;;;13.50;100.00;100119.97;5135867;27;20182;-73
2021/09/28 00:33:26;;;;;;;7.78;4.93;;;;;;;13.46;100.00;100123.81;5135791;27;20196;-74
2021/09/28 00:35:53;;;;;;;8.40;5.35;;;;;;;13.40;100.00;100121.47;5135745;27;20194;-74
2021/09/28 00:38:19;;;;;;;9.45;6.03;;;;;;;13.37;100.00;100120.81;5135319;27;20215;-73
2021/09/28 00:40:47;;;;;;;7.70;5.03;;;;;;;13.27;100.00;100120.44;5135954;27;20185;-73
2021/09/28 00:43:14;;;;;;;10.23;4.95;;;;;;;13.32;100.00;100129.22;5135263;27;20187;-74
2021/09/28 00:45:41;;;;;;;9.80;5.82;;;;;;;13.26;100.00;100127.69;5135490;27;20207;-74
2021/09/28 00:48:07;;;;;;;9.18;5.85;;;;;;;13.36;100.00;100125.31;5135637;27;20195;-74
2021/09/28 00:50:34;;;;;;;16.65;5.65;;;;;;;13.34;100.00;100129.97;5134829;27;20676;-75
2021/09/28 00:53:03;;;;;;;10.60;5.03;;;;;;;13.33;100.00;100130.94;5134968;27;20584;-73
2021/09/28 00:55:30;;;;;;;10.15;4.75;;;;;;;13.25;100.00;100130.50;5135481;27;20655;-73
2021/09/28 00:58:02;;;;;;;6.22;3.80;;;;;;;13.34;100.00;100129.97;5135147;27;20303;-72
2021/09/28 01:00:30;;;;;;;7.47;3.85;;;;;;;13.30;100.00;100131.13;5135386;27;20531;-73
2021/09/28 01:02:58;;;;;;;8.13;3.53;;;;;;;13.40;100.00;100135.00;5135451;27;20179;-72
2021/09/28 01:05:25;;;;;;;7.30;4.10;;;;;;;13.27;100.00;100133.97;5135161;27;20561;-75
2021/09/28 01:07:51;;;;;;;11.30;4.28;;;;;;;13.23;100.00;100140.53;5135193;27;20259;-73
2021/09/28 01:10:18;;;;;;;9.05;4.40;;;;;;;13.17;100.00;100146.31;5135090;27;20271;-74
2021/09/28 01:12:45;;;;;;;8.35;3.72;;;;;;;13.16;100.00;100145.47;5134756;27;20194;-72
2021/09/28 01:15:13;;;;;;;12.30;3.78;;;;;;;13.10;100.00;100143.13;5134912;27;20190;-73
2021/09/28 01:17:39;;;;;;;9.68;3.70;;;;;;;13.15;100.00;100149.97;5134983;27;20214;-73
2021/09/28 01:20:07;;;;;;;8.60;4.10;;;;;;;13.23;100.00;100152.25;5134703;27;20205;-74
2021/09/28 01:22:34;;;;;;;6.28;4.05;;;;;;;13.15;100.00;100149.97;5134272;27;20187;-74
2021/09/28 01:25:01;;;;;;;7.40;3.50;;;;;;;13.13;100.00;100162.72;5134804;27;20195;-74
2021/09/28 01:27:28;;;;;;;6.45;3.97;;;;;;;13.17;100.00;100149.88;5134859;27;20502;-74
2021/09/28 01:29:54;;;;;;;10.85;4.47;;;;;;;13.38;100.00;100145.03;5134655;27;20199;-73
2021/09/28 01:32:21;;;;;;;7.90;4.53;;;;;;;13.37;100.00;100158.69;5134880;27;20653;-74
2021/09/28 01:34:48;;;;;;;6.78;4.75;;;;;;;13.34;100.00;100159.72;5134886;27;20271;-74
2021/09/28 01:37:14;;;;;;;8.90;5.88;;;;;;;13.65;100.00;100163.25;5134071;27;20304;-72
2021/09/28 01:39:42;;;;;;;9.23;5.65;;;;;;;13.53;100.00;100154.06;5134696;27;20524;-74
2021/09/28 01:42:09;;;;;;;7.45;5.13;;;;;;;13.60;100.00;100154.56;5134564;27;20184;-74
2021/09/28 01:44:35;;;;;;;10.57;5.40;;;;;;;13.58;100.00;100148.38;5134369;27;20207;-74
2021/09/28 01:47:03;;;;;;;9.77;6.10;;;;;;;13.67;100.00;100154.06;5134516;27;20182;-73
2021/09/28 01:49:29;;;;;;;7.90;4.80;;;;;;;13.87;100.00;100155.53;5134791;27;20191;-74
2021/09/28 01:51:56;;;;;;;10.88;5.90;;;;;;;13.95;100.00;100158.63;5134438;27;20230;-74
2021/09/28 01:54:22;;;;;;;7.10;5.07;;;;;;;13.92;100.00;100150.69;5134226;27;20185;-73
2021/09/28 01:56:50;;;;;;;7.57;5.00;;;;;;;13.99;100.00;100159.28;5134495;28;20625;-74
2021/09/28 01:59:17;;;;;;;9.38;5.55;;;;;;;13.90;100.00;100154.47;5134286;28;20203;-75
2021/09/28 02:01:44;;;;;;;8.40;5.30;;;;;;;14.00;100.00;100142.09;5134619;28;20272;-74
2021/09/28 02:04:10;;;;;;;6.15;5.22;;;;;;;14.03;100.00;100143.75;5134227;28;20203;-74
2021/09/28 02:06:39;;;;;;;7.70;5.22;;;;;;;14.18;100.00;100150.88;5134518;28;20192;-73
2021/09/28 02:09:07;;;;;;;10.30;6.18;;;;;;;14.17;100.00;100146.41;5134418;28;20652;-72
2021/09/28 02:11:34;;;;;;;7.22;5.07;;;;;;;14.07;100.00;100150.72;5134225;28;20197;-72
2021/09/28 02:14:03;;;;;;;6.13;5.38;;;;;;;14.03;100.00;100141.91;5134326;28;20189;-74
2021/09/28 02:16:30;;;;;;;11.30;5.05;;;;;;;14.12;100.00;100145.84;5134524;28;20295;-72
2021/09/28 02:18:57;;;;;;;9.13;5.30;;;;;;;13.91;100.00;100140.84;5134104;28;20566;-73
2021/09/28 02:21:23;;;;;;;5.75;4.60;;;;;;;13.95;100.00;100139.69;5134331;28;20185;-73
2021/09/28 02:23:50;;;;;;;11.18;5.60;;;;;;;13.95;100.00;100142.41;5133918;28;20190;-72
2021/09/28 02:26:17;;;;;;;9.90;5.32;;;;;;;13.80;100.00;100142.50;5134161;28;20197;-72
2021/09/28 02:28:43;;;;;;;11.35;5.85;;;;;;;13.82;100.00;100130.59;5133944;28;20183;-72
2021/09/28 02:31:11;;;;;;;8.50;5.30;;;;;;;13.88;100.00;100140.16;5133865;28;20189;-73
2021/09/28 02:33:38;;;;;;;6.68;4.95;;;;;;;13.80;100.00;100142.50;5133737;27;20210;-73
2021/09/28 02:36:05;;;;;;;5.78;4.38;;;;;;;14.05;100.00;100147.22;5136688;27;20284;-72
2021/09/28 02:38:32;;;;;;;6.75;4.70;;;;;;;14.10;100.00;100148.66;5138151;27;20200;-73
2021/09/28 02:40:58;;;;;;;8.75;5.22;;;;;;;14.22;100.00;100155.13;5138012;27;20288;-75
2021/09/28 02:43:25;;;;;;;7.30;5.10;;;;;;;14.19;99.74;100144.50;5137791;27;20217;-73
2021/09/28 02:45:51;;;;;;;9.90;5.35;;;;;;;14.02;100.00;100141.97;5138459;27;20185;-73
2021/09/28 02:48:19;;;;;;;8.35;6.38;;;;;;;14.05;100.00;100147.22;5137864;27;20222;-73
2021/09/28 02:50:46;;;;;;;9.02;5.60;;;;;;;13.91;100.00;100140.84;5138107;27;20188;-72
2021/09/28 02:53:13;;;;;;;8.85;4.78;;;;;;;14.04;100.00;100142.75;5137383;27;20232;-74
2021/09/28 02:55:40;;;;;;;9.80;4.80;;;;;;;14.02;100.00;100140.16;5137677;27;20189;-72
2021/09/28 02:58:07;;;;;;;7.82;4.90;;;;;;;14.18;100.00;100143.63;5137696;27;20256;-73
2021/09/28 03:00:33;;;;;;;10.05;5.32;;;;;;;14.03;100.00;100141.03;5137544;27;20277;-73
2021/09/28 03:03:00;;;;;;;6.68;5.43;;;;;;;13.98;100.00;100144.91;5137451;27;20206;-74
2021/09/28 03:05:28;;;;;;;5.22;4.68;;;;;;;13.99;100.00;100143.06;5137754;27;20204;-74
2021/09/28 03:07:55;;;;;;;17.80;6.45;;;;;;;14.15;100.00;100137.53;5137626;27;20182;-74
2021/09/28 03:10:22;;;;;;;9.95;5.72;;;;;;;14.20;100.00;100151.66;5137246;27;20197;-74
2021/09/28 03:12:48;;;;;;;11.25;5.60;;;;;;;14.27;100.00;100139.47;5137520;27;20189;-74
2021/09/28 03:15:15;;;;;;;8.98;5.45;;;;;;;14.15;100.00;100141.09;5137151;27;20187;-73
2021/09/28 03:17:42;;;;;;;9.23;5.28;;;;;;;14.32;99.04;100136.44;5136921;27;20693;-73
2021/09/28 03:20:09;;;;;;;9.80;5.45;;;;;;;14.31;98.22;100140.09;5137435;27;20192;-75
2021/09/28 03:22:37;;;;;;;8.68;5.85;;;;;;;14.13;99.43;100147.59;5137223;27;20186;-73
2021/09/28 03:25:05;;;;;;;10.70;5.60;;;;;;;14.01;100.00;100146.53;5137008;27;20537;-73
2021/09/28 03:27:31;;;;;;;5.78;4.82;;;;;;;13.98;100.00;100155.72;5136812;27;20182;-72
2021/09/28 03:29:58;;;;;;;7.43;5.75;;;;;;;13.96;100.00;100160.38;5137535;27;20186;-73
2021/09/28 03:32:24;;;;;;;9.40;6.20;;;;;;;13.93;100.00;100167.84;5136696;27;20205;-73
2021/09/28 03:34:51;;;;;;;9.55;5.65;;;;;;;13.84;100.00;100169.28;5136997;27;20613;-74
2021/09/28 03:37:18;;;;;;;8.02;4.85;;;;;;;13.88;100.00;100148.28;5136732;27;20297;-74
2021/09/28 03:39:46;;;;;;;8.43;6.13;;;;;;;13.84;100.00;100160.25;5136349;27;20285;-74
2021/09/28 03:42:12;;;;;;;8.80;5.80;;;;;;;13.77;100.00;100165.22;5137091;27;20190;-74
2021/09/28 03:44:39;;;;;;;7.00;5.70;;;;;;;13.86;100.00;100161.03;5136543;27;20200;-74
2021/09/28 03:47:06;;;;;;;7.07;6.18;;;;;;;13.83;100.00;100159.41;5136913;27;20257;-74
2021/09/28 03:49:32;;;;;;;10.02;6.50;;;;;;;13.77;100.00;100165.22;5136735;27;20548;-74
2021/09/28 03:51:59;;;;;;;9.02;7.03;;;;;;;13.71;100.00;100163.75;5136769;27;20253;-74
2021/09/28 03:54:26;;;;;;;9.85;5.88;;;;;;;13.68;100.00;100174.78;5135998;27;20275;-73
2021/09/28 03:56:54;;;;;;;7.03;6.30;;;;;;;13.56;100.00;100164.69;5136939;27;20278;-73
2021/09/28 03:59:20;;;;;;;6.93;6.22;;;;;;;13.62;100.00;100168.88;5136126;27;20205;-74
2021/09/28 04:01:47;;;;;;;6.78;5.82;;;;;;;13.62;100.00;100169.72;5137012;27;20587;-73
2021/09/28 04:04:14;;;;;;;10.65;6.45;;;;;;;13.65;100.00;100164.13;5136385;27;20657;-73
2021/09/28 04:06:40;;;;;;;10.32;6.70;;;;;;;13.67;100.00;100172.16;5136401;27;20627;-73
2021/09/28 04:09:07;;;;;;;7.55;5.93;;;;;;;13.77;100.00;100174.19;5136373;27;20203;-74
2021/09/28 04:11:33;;;;;;;13.75;8.15;;;;;;;13.73;100.00;100177.19;5136470;27;20197;-74
2021/09/28 04:14:01;;;;;;;10.30;6.25;;;;;;;13.69;100.00;100179.19;5136839;27;20634;-73
2021/09/28 04:16:29;;;;;;;8.32;6.78;;;;;;;13.68;100.00;100187.41;5136170;27;20535;-74
2021/09/28 04:18:56;;;;;;;10.68;7.50;;;;;;;13.83;100.00;100191.88;5136040;27;20220;-74
2021/09/28 04:21:22;;;;;;;12.25;8.05;;;;;;;13.71;100.00;100184.53;5136063;27;20180;-73
2021/09/28 04:23:51;;;;;;;9.95;6.68;;;;;;;13.73;100.00;100188.00;5135991;27;20185;-74
2021/09/28 04:26:18;;;;;;;12.98;7.72;;;;;;;13.70;100.00;100185.47;5135494;27;20197;-74
2021/09/28 04:28:45;;;;;;;14.80;7.32;;;;;;;13.74;100.00;100181.63;5135797;27;20186;-75
2021/09/28 04:31:15;;;;;;;8.20;6.60;;;;;;;13.91;100.00;100188.72;5135762;27;20278;-71
2021/09/28 04:33:42;;;;;;;8.02;6.70;;;;;;;14.00;100.00;100193.53;5135674;27;20219;-73
2021/09/28 04:36:08;;;;;;;14.38;8.15;;;;;;;14.01;100.00;100199.81;5136077;27;20182;-73
2021/09/28 04:38:35;;;;;;;12.93;7.53;;;;;;;14.02;100.00;100201.56;5135973;27;20537;-73
2021/09/28 04:41:02;;;;;;;10.30;6.78;;;;;;;14.04;100.00;100192.38;5135313;27;20241;-72
2021/09/28 04:43:29;;;;;;;7.57;6.70;;;;;;;14.07;99.99;100200.31;5132885;27;20201;-73
2021/09/28 04:45:55;;;;;;;10.27;7.57;;;;;;;14.16;98.61;100193.44;5135460;27;20205;-73
2021/09/28 04:48:23;;;;;;;12.00;8.18;;;;;;;14.02;99.02;100198.84;5135316;27;20197;-72
2021/09/28 04:50:52;;;;;;;9.82;7.88;;;;;;;14.06;99.17;100187.72;5134837;27;20248;-73
2021/09/28 04:53:19;;;;;;;13.07;7.88;;;;;;;14.22;96.44;100182.19;5134788;27;20233;-73
2021/09/28 04:55:46;;;;;;;11.02;9.00;;;;;;;14.28;96.11;100183.66;5134822;27;20205;-73
2021/09/28 04:58:13;;;;;;;10.20;8.30;;;;;;;14.18;96.96;100181.53;5134324;27;20294;-74
2021/09/28 05:00:39;;;;;;;10.40;8.40;;;;;;;14.31;95.57;100186.16;5134514;27;20210;-74
2021/09/28 05:03:06;;;;;;;10.30;8.10;;;;;;;14.28;95.40;100189.94;5135233;27;20186;-74
2021/09/28 05:05:34;;;;;;;12.60;8.60;;;;;;;14.27;95.44;100192.72;5134629;27;20198;-74
2021/09/28 05:08:01;;;;;;;12.93;8.90;;;;;;;14.33;94.88;100186.94;5134936;27;20188;-73
2021/09/28 05:10:27;;;;;;;10.38;8.02;;;;;;;14.32;94.47;100183.34;5134400;27;20204;-72
2021/09/28 05:12:54;;;;;;;12.02;9.30;;;;;;;14.26;94.30;100183.75;5134806;27;20193;-73
2021/09/28 05:15:21;;;;;;;12.15;8.77;;;;;;;14.23;95.55;100183.09;5134227;27;20202;-73
2021/09/28 05:17:47;;;;;;;11.55;9.70;;;;;;;14.27;95.03;100174.66;5134586;27;20266;-74
2021/09/28 05:20:14;;;;;;;15.25;10.23;;;;;;;14.30;94.74;100185.28;5134348;27;20188;-74
2021/09/28 05:22:42;;;;;;;19.77;14.70;;;;;;;14.37;93.63;100177.66;5134337;27;20208;-74
2021/09/28 05:25:10;;;;;;;14.45;9.55;;;;;;;14.45;92.30;100187.97;5134243;27;20682;-74
2021/09/28 05:27:36;;;;;;;17.05;10.18;;;;;;;14.46;92.22;100181.59;5134389;27;20644;-74
2021/09/28 05:30:04;;;;;;;16.55;8.88;;;;;;;14.47;92.01;100180.63;5134480;27;20208;-73
2021/09/28 05:32:31;;;;;;;14.57;10.20;;;;;;;14.37;92.68;100185.78;5134110;27;20671;-74
2021/09/28 05:34:57;;;;;;;12.95;9.77;;;;;;;14.45;92.65;100185.25;5134059;27;20182;-74
2021/09/28 05:37:24;;;;;;;16.67;10.10;;;;;;;14.47;92.57;100176.09;5133841;27;20720;-75
2021/09/28 05:39:52;;;;;;;15.52;10.85;;;;;;;14.56;91.83;100178.22;5133254;27;20228;-74
2021/09/28 05:42:18;;;;;;;15.40;12.48;;;;;;;14.62;91.46;100178.78;5133918;27;20668;-74
2021/09/28 05:44:45;;;;;;;17.02;11.95;;;;;;;14.60;91.22;100181.59;5134211;27;20182;-74
2021/09/28 05:47:12;;;;;;;15.70;10.70;;;;;;;14.54;92.24;100188.28;5133955;27;20202;-74
2021/09/28 05:49:39;;;;;;;18.67;13.40;;;;;;;14.48;92.74;100176.94;5133654;27;20214;-75
2021/09/28 05:52:08;;;;;;;16.65;12.15;;;;;;;14.46;93.71;100179.75;5133577;27;20226;-73
2021/09/28 05:54:39;;;;;;;22.15;11.27;;;;;;;14.35;93.65;100177.72;5133907;27;20187;-75
2021/09/28 05:57:07;;;;;;;17.45;12.80;;;;;;;14.53;92.23;100191.94;5133767;27;20185;-74
2021/09/28 05:59:34;;;;;;;17.95;12.07;;;;;;;14.53;93.18;100188.34;5133934;28;20694;-74
2021/09/28 06:02:01;;;;;;;17.67;10.63;;;;;;;14.83;90.43;100187.34;5133182;28;20235;-74
2021/09/28 06:04:27;;;;;;;18.23;10.90;;;;;;;14.89;89.78;100189.66;5134302;28;20264;-75
2021/09/28 06:06:54;;;;;;;18.00;11.52;;;;;;;14.93;89.41;100183.91;5133626;28;20178;-72
2021/09/28 06:09:21;;;;;;;16.35;11.65;;;;;;;14.76;89.37;100185.03;5135064;27;20284;-73
2021/09/28 06:11:47;;;;;;;20.85;12.25;;;;;;;14.85;88.59;100188.97;5137800;27;20280;-74
2021/09/28 06:14:15;;;;;;;11.73;8.25;;;;;;;14.98;85.50;100181.75;5137660;27;20280;-74
2021/09/28 06:16:42;;;;;;;11.15;7.57;;;;;;;14.77;85.45;100183.22;5136249;27;20204;-73
2021/09/28 06:19:08;;;;;;;12.73;7.90;;;;;;;14.69;86.45;100180.13;5136281;27;20677;-73
2021/09/28 06:21:35;;;;;;;10.20;8.13;;;;;;;14.84;85.98;100181.81;5136987;27;20283;-74
2021/09/28 06:24:01;;;;;;;12.50;8.52;;;;;;;14.59;86.92;100171.75;5140893;27;20284;-74
2021/09/28 06:26:28;;;;;;;12.68;7.93;;;;;;;14.77;86.18;100178.66;5146094;27;20572;-73
2021/09/28 06:28:55;;;;;;;10.45;7.78;;;;;;;14.74;85.17;100173.44;5147342;27;20292;-72
2021/09/28 06:31:23;;;;;;;8.82;7.93;;;;;;;14.74;85.60;100175.25;5146796;27;20276;-74
2021/09/28 06:33:49;;;;;;;11.25;7.00;;;;;;;14.52;86.49;100170.38;5147123;27;20545;-74
2021/09/28 06:36:16;;;;;;;13.73;7.20;;;;;;;14.66;86.73;100164.94;5148212;27;20206;-74
2021/09/28 06:38:43;;;;;;;15.10;9.45;;;;;;;14.37;89.26;100164.97;5146848;27;20317;-74
2021/09/28 06:41:11;;;;;;;11.65;8.43;;;;;;;14.25;90.74;100165.78;5146234;27;20288;-74
2021/09/28 06:43:37;;;;;;;14.45;9.25;;;;;;;14.45;90.13;100158.16;5147385;27;20194;-74
2021/09/28 06:46:05;;;;;;;12.18;8.85;;;;;;;14.38;89.83;100161.31;5145643;27;20660;-74
2021/09/28 06:48:36;;;;;;;9.10;7.82;;;;;;;14.33;89.88;100151.72;5147353;27;20198;-74
2021/09/28 06:51:03;;;;;;;12.23;6.88;;;;;;;14.31;88.98;100153.66;5146182;27;20205;-74
2021/09/28 06:53:30;;;;;;;8.50;6.55;;;;;;;14.10;88.60;100145.09;5147771;27;20330;-74
2021/09/28 06:55:56;;;;;;;8.07;6.45;;;;;;;14.12;89.10;100143.16;5147401;27;20209;-74
2021/09/28 06:58:23;;;;;;;8.15;5.78;;;;;;;14.27;88.33;100147.59;5147001;27;20308;-74
2021/09/28 07:00:51;;;;;;;10.48;7.72;;;;;;;14.14;88.70;100136.66;5147978;27;20200;-74
2021/09/28 07:03:18;;;;;;;8.65;6.70;;;;;;;14.17;89.35;100138.28;5145349;27;20234;-73
2021/09/28 07:05:46;;;;;;;7.63;6.50;;;;;;;14.27;87.75;100153.00;5146949;27;20707;-74
2021/09/28 07:08:12;;;;;;;7.47;6.70;;;;;;;14.20;88.26;100146.25;5148680;27;20197;-73
2021/09/28 07:10:39;;;;;;;6.32;5.72;;;;;;;14.04;90.19;100154.47;5147394;27;20730;-73
2021/09/28 07:13:05;;;;;;;13.43;8.07;;;;;;;14.30;89.65;100152.78;5146029;27;20210;-73
2021/09/28 07:15:32;;;;;;;8.82;6.85;;;;;;;14.59;87.60;100156.34;5147149;27;20303;-73
2021/09/28 07:17:59;;;;;;;13.27;7.50;;;;;;;14.87;87.38;100151.78;5142584;27;20209;-72
2021/09/28 07:20:25;;;;;;;12.52;8.63;;;;;;;14.92;86.64;100148.75;5143835;27;20219;-73
2021/09/28 07:22:54;;;;;;;12.95;8.50;;;;;;;15.09;86.69;100162.06;5145928;27;20233;-73
2021/09/28 07:25:20;;;;;;;12.88;8.27;;;;;;;15.02;86.48;100156.19;5142285;27;20206;-72
2021/09/28 07:27:47;;;;;;;15.27;8.35;;;;;;;15.36;84.46;100163.84;5145965;27;20219;-74
2021/09/28 07:30:15;;;;;;;9.82;7.85;;;;;;;15.33;84.67;100158.63;5144939;27;20200;-74
2021/09/28 07:32:42;;;;;;;12.15;9.10;;;;;;;15.49;82.83;100158.44;5148433;27;20206;-74
2021/09/28 07:35:10;;;;;;;13.10;8.88;;;;;;;15.64;82.18;100166.38;5145535;27;20201;-74
2021/09/28 07:37:37;;;;;;;13.15;9.18;;;;;;;15.88;80.94;100159.38;5146658;27;20195;-74
2021/09/28 07:40:18;;;;;;;10.15;8.45;;;;;;;16.26;78.60;100157.47;5144573;27;20226;-74
2021/09/28 07:42:45;;;;;;;11.15;6.97;;;;;;;16.45;77.31;100154.25;5145728;27;20689;-74
2021/09/28 07:45:12;;;;;;;9.32;7.68;;;;;;;16.46;76.83;100161.44;5145009;27;20613;-74
2021/09/28 07:47:39;;;;;;;13.43;8.65;;;;;;;16.19;76.74;100156.19;5146050;27;20205;-74
2021/09/28 07:50:07;;;;;;;15.15;10.70;;;;;;;16.61;76.00;100158.56;5145972;27;20229;-74
2021/09/28 07:52:34;;;;;;;12.82;8.73;;;;;;;16.75;74.50;100158.38;5142941;27;20595;-73
2021/09/28 07:55:01;;;;;;;13.02;8.27;;;;;;;16.64;75.02;100155.59;5147148;27;20281;-74
2021/09/28 07:57:29;;;;;;;11.45;8.65;;;;;;;17.01;73.46;100156.47;5145201;27;20241;-73
2021/09/28 07:59:55;;;;;;;11.75;8.27;;;;;;;17.21;72.04;100168.53;5142231;27;20235;-74
2021/09/28 08:02:23;;;;;;;13.98;9.88;;;;;;;17.02;72.78;100166.34;5134463;27;20202;-74
2021/09/28 08:04:49;;;;;;;11.43;7.70;;;;;;;16.82;72.69;100167.88;5146888;27;20289;-73
2021/09/28 08:07:17;;;;;;;8.85;7.47;;;;;;;16.87;73.33;100173.81;5148751;27;20189;-74
2021/09/28 08:09:44;;;;;;;11.98;8.60;;;;;;;16.87;72.95;100168.38;5135668;27;20181;-73
2021/09/28 08:12:11;;;;;;;11.57;7.30;;;;;;;16.93;71.44;100174.34;5135245;27;20219;-74
2021/09/28 08:14:39;;;;;;;12.68;7.78;;;;;;;16.92;71.89;100157.16;5134920;27;20276;-74
2021/09/28 08:17:06;;;;;;;11.88;8.07;;;;;;;16.91;72.25;100162.72;5135786;27;20648;-74
2021/09/28 08:19:33;;;;;;;10.85;8.27;;;;;;;17.12;71.38;100169.25;5135372;27;20208;-71
2021/09/28 08:22:00;;;;;;;11.13;8.55;;;;;;;16.98;71.32;100156.69;5135596;27;20204;-74
2021/09/28 08:24:29;;;;;;;21.83;11.10;;;;;;;17.18;71.34;100163.31;5134803;27;20303;-74
2021/09/28 08:29:41;;;;;;;9.52;7.40;;;;;;;17.01;71.38;100158.31;5135223;27;20186;-74
2021/09/28 08:32:08;;;;;;;9.25;7.72;;;;;;;17.02;71.70;100150.03;5133936;27;20198;-75
2021/09/28 08:34:34;;;;;;;13.50;8.43;;;;;;;17.16;71.31;100148.97;5134585;27;20216;-75
2021/09/28 08:37:02;;;;;;;11.35;7.78;;;;;;;17.46;69.81;100162.06;5134675;27;20286;-73
2021/09/28 08:39:28;;;;;;;10.68;7.25;;;;;;;17.65;68.17;100166.94;5134683;27;20228;-73
2021/09/28 08:41:55;;;;;;;9.65;7.05;;;;;;;18.12;66.00;100162.31;5134506;27;20192;-73
2021/09/28 08:44:22;;;;;;;11.75;8.20;;;;;;;18.18;65.69;100160.97;5134737;27;20181;-75
2021/09/28 08:46:51;;;;;;;11.30;8.80;;;;;;;18.41;64.43;100158.22;5140664;27;20210;-73
2021/09/28 08:49:19;;;;;;;12.10;9.00;;;;;;;18.52;63.75;100155.47;5142337;27;20636;-73
2021/09/28 08:51:46;;;;;;;13.45;9.05;;;;;;;18.31;63.81;100149.91;5143357;27;20209;-73
2021/09/28 08:54:13;;;;;;;12.52;10.32;;;;;;;18.24;63.94;100157.72;5143423;27;20869;-74
2021/09/28 08:56:40;;;;;;;8.65;7.78;;;;;;;18.46;62.52;100162.28;5147527;27;20669;-75
2021/09/28 08:59:08;;;;;;;10.20;7.90;;;;;;;18.38;62.43;100156.59;5143108;27;20244;-74
2021/09/28 09:01:37;;;;;;;11.50;7.93;;;;;;;18.35;62.87;100165.03;5144290;27;20299;-73
2021/09/28 09:04:23;;;;;;;13.40;9.70;;;;;;;18.49;62.15;100155.72;5145098;27;20235;-74
2021/09/28 09:06:50;;;;;;;15.82;11.95;;;;;;;18.37;62.34;100154.88;5144331;27;20231;-74
2021/09/28 09:09:18;;;;;;;12.38;10.52;;;;;;;18.32;62.46;100157.09;5145191;27;20197;-74
2021/09/28 09:11:46;;;;;;;10.50;8.10;;;;;;;18.10;63.34;100153.38;5142758;27;20209;-74
2021/09/28 09:14:17;;;;;;;14.20;7.63;;;;;;;18.02;63.79;100142.25;5143785;27;20204;-74
2021/09/28 09:16:44;;;;;;;14.07;7.55;;;;;;;18.41;62.78;100150.03;5144071;27;20247;-75
2021/09/28 09:19:14;;;;;;;10.43;7.15;;;;;;;18.24;63.69;100137.78;5143531;27;20228;-74
2021/09/28 09:21:47;;;;;;;12.27;6.75;;;;;;;17.96;64.69;100142.75;5143855;27;20650;-75
2021/09/28 09:24:42;;;;;;;9.27;6.15;;;;;;;18.22;63.70;100142.47;5142724;27;20676;-74
2021/09/28 09:27:09;;;;;;;6.78;5.32;;;;;;;18.44;63.10;100138.88;5143195;27;20215;-73
2021/09/28 09:29:36;;;;;;;8.80;5.97;;;;;;;18.52;62.42;100145.44;5143561;27;20196;-73
2021/09/28 09:32:03;;;;;;;11.82;6.43;;;;;;;18.58;62.17;100143.19;5143717;27;20290;-73
2021/09/28 09:34:29;;;;;;;6.35;4.60;;;;;;;18.63;62.11;100139.09;5143275;27;20218;-72
2021/09/28 09:36:59;;;;;;;8.32;4.63;;;;;;;18.80;61.22;100145.03;5143062;27;20677;-73
2021/09/28 09:39:28;;;;;;;6.47;4.50;;;;;;;18.72;61.40;100141.06;5142320;27;20213;-73
2021/09/28 09:42:06;;;;;;;7.45;4.95;;;;;;;18.80;60.04;100134.97;5142724;27;20204;-74
2021/09/28 09:44:33;;;;;;;7.05;4.00;;;;;;;18.83;60.24;100137.44;5142202;27;20299;-73
2021/09/28 09:47:01;;;;;;;7.20;4.55;;;;;;;18.96;60.14;100129.09;5143418;27;20223;-73
2021/09/28 09:49:30;;;;;;;5.72;4.82;;;;;;;18.76;60.93;100130.72;5142874;27;20204;-74
2021/09/28 09:52:03;;;;;;;12.40;6.20;;;;;;;18.79;60.86;100130.53;5142461;27;20668;-74
2021/09/28 09:54:33;;;;;;;5.28;3.80;;;;;;;18.96;59.69;100121.75;5143747;27;20224;-74
2021/09/28 09:57:04;;;;;;;4.45;3.33;;;;;;;19.10;58.95;100125.19;5143404;27;20554;-74
2021/09/28 09:59:31;;;;;;;3.58;3.15;;;;;;;18.97;58.67;100117.16;5142699;27;20216;-74
2021/09/28 10:01:58;;;;;;;5.38;3.40;;;;;;;19.06;58.46;100116.41;5143261;27;20292;-72
2021/09/28 10:04:25;;;;;;;4.60;3.03;;;;;;;19.24;57.72;100115.78;5143023;27;20233;-72
2021/09/28 10:06:53;;;;;;;6.50;4.40;;;;;;;19.42;57.06;100122.38;5142809;27;20562;-73
2021/09/28 10:09:23;;;;;;;4.80;3.95;;;;;;;19.61;57.58;100120.81;5143159;27;20203;-73
2021/09/28 10:11:55;;;;;;;4.18;3.72;;;;;;;19.62;57.35;100115.19;5143845;27;20193;-72
2021/09/28 10:14:34;;;;;;;6.40;3.45;;;;;;;19.04;58.05;100112.94;5143368;27;20944;-73
2021/09/28 10:17:01;;;;;;;3.78;3.03;;;;;;;19.30;57.28;100110.69;5142221;27;20537;-73
2021/09/28 10:19:43;;;;;;;8.88;3.60;;;;;;;19.71;56.37;100097.16;5141727;27;20226;-73
2021/09/28 10:22:45;;;;;;;5.22;3.42;;;;;;;19.95;55.85;100100.44;5142091;27;20288;-73
2021/09/28 10:25:37;;;;;;;8.70;3.23;;;;;;;20.19;53.42;100101.97;5142823;27;20204;-74
2021/09/28 10:28:33;;;;;;;6.63;3.23;;;;;;;20.52;52.84;100092.56;5142464;27;20448;-73
2021/09/28 10:31:00;;;;;;;5.43;3.20;;;;;;;20.66;51.96;100090.47;5140906;27;20448;-73
2021/09/28 10:33:33;;;;;;;5.93;3.23;;;;;;;20.76;51.68;100094.94;5142916;27;20766;-73
2021/09/28 10:36:01;;;;;;;4.67;4.03;;;;;;;21.08;51.60;100081.97;5142015;27;20439;-73
2021/09/28 10:38:45;;;;;;;3.53;2.87;;;;;;;21.21;50.24;100077.94;5142707;27;20804;-73
2021/09/28 10:41:42;;;;;;;4.07;3.00;;;;;;;21.07;49.46;100078.34;5141950;27;20475;-73
2021/09/28 10:44:47;;;;;;;4.80;2.50;;;;;;;21.01;49.99;100068.88;5142645;27;20484;-74
2021/09/28 10:47:49;;;;;;;3.57;2.60;;;;;;;21.00;50.03;100066.25;5142564;27;20447;-75
2021/09/28 10:50:22;;;;;;;7.17;2.77;;;;;;;21.01;50.16;100059.78;5140220;27;20495;-74
2021/09/28 10:52:49;;;;;;;6.90;2.67;;;;;;;20.74;50.61;100063.25;5140606;27;20480;-74
2021/09/28 10:55:41;;;;;;;8.10;4.17;;;;;;;20.89;50.60;100053.59;5143286;27;21169;-73
2021/09/28 10:58:14;;;;;;;8.30;2.63;;;;;;;20.63;51.03;100053.31;5144629;27;20447;-73
2021/09/28 11:01:14;;;;;;;6.77;3.40;;;;;;;20.32;51.99;100042.44;5146600;27;21244;-73
2021/09/28 11:04:15;;;;;;;4.73;2.60;;;;;;;20.22;52.21;100038.81;5142676;27;20474;-73
2021/09/28 11:06:52;;;;;;;6.03;3.07;;;;;;;20.51;51.76;100043.44;5146516;27;20447;-74
2021/09/28 11:09:21;;;;;;;4.73;3.40;;;;;;;20.57;51.54;100032.84;5145772;27;20482;-73
2021/09/28 11:11:50;;;;;;;2.83;2.30;;;;;;;20.72;50.81;100035.16;5144946;27;20533;-73
2021/09/28 11:14:19;;;;;;;5.27;2.23;;;;;;;20.94;49.01;100032.13;5145822;27;20444;-73
2021/09/28 11:16:50;;;;;;;5.03;3.53;;;;;;;20.91;48.31;100029.66;5146234;27;20527;-74
2021/09/28 11:19:17;;;;;;;6.50;2.97;;;;;;;20.89;47.87;100020.75;5144267;27;20445;-73
2021/09/28 11:21:46;;;;;;;2.40;1.80;;;;;;;20.55;47.51;100028.50;5144846;27;20481;-73
2021/09/28 11:24:14;;;;;;;8.90;3.53;;;;;;;20.74;48.31;100023.06;5146473;27;21012;-75
2021/09/28 11:26:43;;;;;;;7.63;2.70;;;;;;;20.35;49.46;100020.28;5144814;27;20451;-74